Hovedside
METAR-TAF:

METAR-TAF

Lufthavner :

Brønnøysund, Norge

Brønnøysund lufthavn

breddegrad: 65-28N, lengdegrad: 012-13E, høyde over havet: 0 m

Gjeldene værobservasjon

Denne rapporten ble laget for 19 minutter siden, klokken 07:20 UTC
Vind 16 kt fra Sørøst med vindkast opp mot 30 kt, skiftende mellom Øst og Sør
Temperatur 4°C
Luftfuktighet 65%
Trykk 1017 hPa
Sikt 10 km eller mer
Få skyer i en høyde av 4500 ft

METAR: ENBN 240720Z 13016G30KT 090V170 9999 FEW045 04/M02 Q1017

Tid: 09:39 (07:39 UTC)

Varsel

Denne rapporten ble laget for 2 timer og 39 minutter siden, klokken 05:00 UTC
Varsel gyldig fra 24. klokken 06 UTC til 24. klokken 15 UTC
Vind 15 kt fra Øst-sørøst med vindkast opp mot 30 kt
Sikt 10 km eller mer
ingen skyer under 1500 m og ingen bygeskyer
Midlertidig
fra 24. klokken 06 UTC til 24. klokken 15 UTC
Vind 25 kt fra Øst-sørøst med vindkast opp mot 40 kt

TAF: ENBN 240500Z 2406/2415 12015G30KT CAVOK TEMPO 2406/2415 12025G40KT

Værobservasjoner og værvarsel for over 4000 flyplasser (METAR- og TAF-rapporter).

Tilgjengelige stasjoner er representert av de røde og gule prikkene på kartet.

Hold musepekeren over prikken for å se navnet på stasjonen.

Klikk så for å se værobservasjoner og -varsler.

For å forandre kartet kan du klikke på den grønne knappen med svart kryss for å zoome inn, på den grønne knappen med strek for å zoome ut, eller på de grønne pilene for å se tilstøtende kart.


METAR-TAF: